Aeroporto :
LOGIN :

Iscrizione | Disclaimer

   EN    FR    IT 

 










Sommario :    VFR   VFR Marginale   IFR   IFR Intensivo   IFR Molto Intensivo
Visibilità : 
Base nubi : 
>= 8 km
>= 3000ft
5 / 8 km
1000 / 3000 ft
1500m / 5 km
500 / 1000 ft
800 / 1500m
200 / 500 ft
< 800m
< 200 ft
Simboli :   Temporali  Nebbia  Neve Forte  Precipitazioni Forti  Vento > 20 kt
SIGMETs :   Varie  Temporali  Ghiacco  Turbolenza  Onda orograficha  Ceneri Vulcaniche






- Altitudine del aeroporto : 1521 ft
- Codice IATA : NCY


LFLP - Annecy

ULTIMO METAR :
  • 051330Z AUTO 20005KT 130V280 9999 FEW052 21/13 Q1014 NOSIG

METARs OBSOLETI :
  • 051300Z AUTO 19007KT 150V230 9999 FEW022 OVC047 20/16 Q1014 NOSIG
  • 051230Z AUTO 20005KT 160V230 9999 FEW024 SCT033 BKN043 19/15 Q1014 NOSIG
  • 051200Z AUTO 22003KT 140V270 9999 FEW035/// BKN042/// OVC052/// ///TCU 19/15 Q1014 BECMG SCT050
  • 051130Z AUTO 18004KT 9999 FEW013/// OVC036/// ///CB 17/15 Q1014 BECMG SCT050

TAF TAF LFLP
Valido dal 05 a 09 ore il 06 a 09 ore UTC


050800Z 0509/0609 VRB03KT 9999 BKN040
PROB40
TEMPO 0509/0511 -SHRA BKN008 SCT030TCU
BECMG 0512/0514 22005KT SCT050
PROB30
TEMPO 0600/0606 5000 -RA BKN040



MetMap, La meteo Aeronautica in un colpo d'occhio ! - Copyright ORBIFLY Dicembre 2007 - Disclaimer

ORBIFLY MET'MAP TEAM :

Programmazione e sviluppo : Alexandra Zaïnal
Concezione : Baudouin d'Aumeries
Aiuto per la programmazione : Marc-Olivier Méhu
Supporto tecnico e logistico : Manuel Goepfert
Aiuto per la traduzione : Arnaldo La Scala

Contatto : metmap@orbifly.com




FONTI E CREDITI :

   NOAA